Sandalphon — 9HB5851 — position and weather

sailwx.info

Track history (hours):
 
Tides and Currents Weather Stations Pressure Air Temp Water Temp Dewpoint Dewpoint Depression Visibility Wind Speed Wind Dir Waves Ship Positions

Sandalphon

Last reported at 2018-Apr-02 11:38 UTC. Time now 2018-Jun-18 05:39 UTC.
Position N 36°16' E 030°29'.
Warning: this ship's position is months out of date.

Length 31 m; draft 2.4 m.

Type: Pleasure craft. MMSI: 248567000.

Date/timePositionNaut miles runAvg speedWind from/ knotsBaromVisibWave heightAir tempDewpointWater temp
2018-Apr-02 11:38N 36°16' E 030°29'2 8.5
2018-Apr-02 11:27N 36°18' E 030°30'2 0.1
2018-Apr-01 16:08N 36°20' E 030°32'1 7.4
2018-Apr-01 16:00N 36°20' E 030°33'4 8.9
2018-Apr-01 15:31N 36°25' E 030°32'4 8.5
2018-Apr-01 15:00N 36°29' E 030°33'2 4.7
2018-Apr-01 14:30N 36°31' E 030°33'0 0.0
2018-Apr-01 14:00N 36°31' E 030°33'0 0.0
2018-Apr-01 13:30N 36°31' E 030°33'0 0.0
2018-Apr-01 13:00N 36°31' E 030°33'1 1.2
2018-Apr-01 12:30N 36°31' E 030°34'3 5.9
2018-Apr-01 12:00N 36°34' E 030°35'2 4.1
2018-Apr-01 11:30N 36°36' E 030°35'0 0.1
2018-Apr-01 11:01N 36°36' E 030°35'0 0.0
2018-Apr-01 10:31N 36°36' E 030°35'0 0.0
2018-Apr-01 10:00N 36°36' E 030°35'0 0.0
2018-Apr-01 09:30N 36°36' E 030°35'0 0.0
2018-Apr-01 09:01N 36°36' E 030°35'0 0.0
2018-Apr-01 08:31N 36°36' E 030°35'0 0.0
2018-Apr-01 08:00N 36°36' E 030°35'0 0.0
2018-Apr-01 07:30N 36°36' E 030°35'0 0.0
2018-Apr-01 07:00N 36°36' E 030°35'0 0.0
2018-Apr-01 06:30N 36°36' E 030°35'0 0.0
2018-Apr-01 06:00N 36°36' E 030°35'0 0.0
2018-Apr-01 05:30N 36°36' E 030°35'0 0.1
2018-Apr-01 05:00N 36°36' E 030°35'0 0.0
2018-Apr-01 04:30N 36°36' E 030°35'0 0.0
2018-Apr-01 04:00N 36°36' E 030°35'0 0.0
2018-Apr-01 03:30N 36°36' E 030°35'0 0.0
2018-Apr-01 03:00N 36°36' E 030°35'0 0.0
2018-Apr-01 02:30N 36°36' E 030°35'0 0.0
2018-Apr-01 02:00N 36°36' E 030°35'0 0.0
2018-Apr-01 01:30N 36°36' E 030°35'0 0.0
2018-Apr-01 01:00N 36°36' E 030°35'0 0.0
2018-Apr-01 00:30N 36°36' E 030°35'0 0.0
2018-Apr-01 00:00N 36°36' E 030°35'0 0.0
2018-Mar-31 23:30N 36°36' E 030°35'0 0.0
2018-Mar-31 23:00N 36°36' E 030°35'0 0.0
2018-Mar-31 18:08N 36°36' E 030°35'0 0.0
2018-Mar-31 17:59N 36°36' E 030°35'0 0.0
2018-Mar-31 17:30N 36°36' E 030°35'0 0.0
2018-Mar-31 17:00N 36°36' E 030°35'0 0.0
2018-Mar-31 16:30N 36°36' E 030°35'0 0.0
2018-Mar-31 16:00N 36°36' E 030°35'0 0.0
2018-Mar-31 15:30N 36°36' E 030°35'0 0.0
2018-Mar-31 15:00N 36°36' E 030°35'0 0.0
2018-Mar-31 14:31N 36°36' E 030°35'0 0.0
2018-Mar-31 14:01N 36°36' E 030°35'0 0.0
2018-Mar-31 13:30N 36°36' E 030°35'0 0.0
2018-Mar-31 13:01N 36°36' E 030°35'0 0.0
2018-Mar-31 12:30N 36°36' E 030°35'0 0.0
2018-Mar-31 12:01N 36°36' E 030°35'0 0.0
2018-Mar-31 11:30N 36°36' E 030°35'0 0.0
2018-Mar-31 11:00N 36°36' E 030°35'0 0.0
2018-Mar-31 10:30N 36°36' E 030°35'0 0.0
2018-Mar-31 10:00N 36°36' E 030°35'0 0.0
2018-Mar-31 09:31N 36°36' E 030°35'0 0.0
2018-Mar-31 09:00N 36°36' E 030°35'0 0.0
2018-Mar-31 08:30N 36°36' E 030°35'0 0.0
2018-Mar-31 08:01N 36°36' E 030°35'0 0.0
2018-Mar-31 07:30N 36°36' E 030°35'3 5.1
2018-Mar-31 07:00N 36°38' E 030°35'4 8.8
2018-Mar-31 06:31N 36°43' E 030°36'4 8.7
2018-Mar-31 06:00N 36°47' E 030°38'4 8.6
2018-Mar-31 05:30N 36°51' E 030°41'3 5.6
2018-Mar-31 05:00N 36°53' E 030°42'0 0.0
2018-Mar-31 04:30N 36°53' E 030°42'0 0.0
2018-Mar-31 04:00N 36°53' E 030°42'0 0.0
2018-Mar-31 03:30N 36°53' E 030°42'0 0.0
2018-Mar-31 03:00N 36°53' E 030°42'0 0.0
2018-Mar-31 02:30N 36°53' E 030°42'0 0.0
2018-Mar-31 02:00N 36°53' E 030°42'0 0.0
2018-Mar-31 01:30N 36°53' E 030°42'0 0.0
2018-Mar-31 01:00N 36°53' E 030°42'0 0.0
2018-Mar-31 00:30N 36°53' E 030°42'0 0.0
2018-Mar-31 00:00N 36°53' E 030°42'0 0.0
2018-Mar-30 23:30N 36°53' E 030°42'0 0.0
2018-Mar-30 23:00N 36°53' E 030°42'0 0.0
2018-Mar-30 22:30N 36°53' E 030°42'0 0.0
2018-Mar-30 22:00N 36°53' E 030°42'0 0.0
2018-Mar-30 21:30N 36°53' E 030°42'0 0.0
2018-Mar-30 21:00N 36°53' E 030°42'0 0.0
2018-Mar-30 20:30N 36°53' E 030°42'0 0.0
2018-Mar-30 20:00N 36°53' E 030°42'0 0.0
2018-Mar-30 19:30N 36°53' E 030°42'0 0.0
2018-Mar-30 19:00N 36°53' E 030°42'0 0.0
2018-Mar-30 18:30N 36°53' E 030°42'0 0.0
2018-Mar-30 18:00N 36°53' E 030°42'0 0.0
2018-Mar-30 17:30N 36°53' E 030°42'0 0.0
2018-Mar-30 17:00N 36°53' E 030°42'0 0.0
2018-Mar-30 16:30N 36°53' E 030°42'0 0.0
2018-Mar-30 16:00N 36°53' E 030°42'0 0.0
2018-Mar-30 15:30N 36°53' E 030°42'0 0.0
2018-Mar-30 15:00N 36°53' E 030°42'0 0.0
2018-Mar-30 14:30N 36°53' E 030°42'0 0.7
2018-Mar-30 14:01N 36°53' E 030°42'4 7.8
2018-Mar-30 13:31N 36°50' E 030°46'2 4.2
2018-Mar-30 13:01N 36°51' E 030°48'0 0.0
2018-Mar-30 12:30N 36°51' E 030°48'0 0.0
2018-Mar-30 12:00N 36°51' E 030°48'0 0.0
2018-Mar-30 11:30N 36°51' E 030°48'0 0.1
2018-Mar-30 11:00N 36°51' E 030°48'0 0.1
2018-Mar-30 10:30N 36°51' E 030°48'0 0.0
2018-Mar-30 10:00N 36°51' E 030°48'0 0.0
2018-Mar-30 09:31N 36°51' E 030°48'0 0.9
2018-Mar-30 09:00N 36°50' E 030°49'2 3.4
2018-Mar-30 08:31N 36°51' E 030°47'2 4.1
2018-Mar-30 08:00N 36°51' E 030°44'2 4.4
2018-Mar-30 07:30N 36°53' E 030°42'0 1.0
2018-Mar-30 07:00N 36°53' E 030°42'0 0.0
2018-Mar-30 06:31N 36°53' E 030°42'0 0.0
2018-Mar-30 06:00N 36°53' E 030°42'0 0.0
2018-Mar-30 05:30N 36°53' E 030°42'0 0.0
2018-Mar-30 05:00N 36°53' E 030°42'0 0.0
2018-Mar-30 04:30N 36°53' E 030°42'0 0.0
2018-Mar-30 04:00N 36°53' E 030°42'0 0.0
2018-Mar-30 03:30N 36°53' E 030°42'0 0.0
2018-Mar-30 03:00N 36°53' E 030°42'0 0.0
2018-Mar-30 02:30N 36°53' E 030°42'0 0.0
2018-Mar-30 02:00N 36°53' E 030°42'0 0.0
2018-Mar-30 01:30N 36°53' E 030°42'0 0.0
2018-Mar-30 01:00N 36°53' E 030°42'0 0.0
2018-Mar-30 00:30N 36°53' E 030°42'0 0.0
2018-Mar-30 00:00N 36°53' E 030°42'0 0.0
2018-Mar-29 23:30N 36°53' E 030°42'0 0.0
2018-Mar-29 23:00N 36°53' E 030°42'0 0.0
2018-Mar-29 22:30N 36°53' E 030°42'0 0.0
2018-Mar-29 22:00N 36°53' E 030°42'0 0.0
2018-Mar-29 21:30N 36°53' E 030°42'0 0.0
2018-Mar-29 21:00N 36°53' E 030°42'0 0.0
2018-Mar-29 20:30N 36°53' E 030°42'0 0.0
2018-Mar-29 20:01N 36°53' E 030°42'0 0.0
2018-Mar-29 19:30N 36°53' E 030°42'0 0.0
2018-Mar-29 19:00N 36°53' E 030°42'0 0.0
2018-Mar-29 18:30N 36°53' E 030°42'0 0.0
2018-Mar-29 18:00N 36°53' E 030°42'0 0.0
2018-Mar-29 17:30N 36°53' E 030°42'0 0.0
2018-Mar-29 17:00N 36°53' E 030°42'0 0.0
2018-Mar-29 16:30N 36°53' E 030°42'0 0.0
2018-Mar-29 15:59N 36°53' E 030°42'0 0.0
2018-Mar-29 15:30N 36°53' E 030°42'0 0.0
2018-Mar-29 15:00N 36°53' E 030°42'0 0.0
2018-Mar-29 14:30N 36°53' E 030°42'0 0.0
2018-Mar-29 14:00N 36°53' E 030°42'0 0.0
2018-Mar-29 13:30N 36°53' E 030°42'0 0.0
2018-Mar-29 13:00N 36°53' E 030°42'0 0.0
2018-Mar-29 12:30N 36°53' E 030°42'0 0.0
2018-Mar-29 12:00N 36°53' E 030°42'0 0.0
2018-Mar-29 11:30N 36°53' E 030°42'0 0.0
2018-Mar-29 11:00N 36°53' E 030°42'0 0.0
2018-Mar-29 10:30N 36°53' E 030°42'0 0.0
2018-Mar-29 10:00N 36°53' E 030°42'0 0.0
2018-Mar-29 09:30N 36°53' E 030°42'0 0.0
2018-Mar-29 09:00N 36°53' E 030°42'0 0.0
2018-Mar-29 08:30N 36°53' E 030°42'0 0.0
2018-Mar-29 08:00N 36°53' E 030°42'0 0.0
2018-Mar-29 07:30N 36°53' E 030°42'0 0.0
2018-Mar-29 07:00N 36°53' E 030°42'0 0.0
2018-Mar-29 06:30N 36°53' E 030°42'0 0.0
2018-Mar-29 06:00N 36°53' E 030°42'0 0.0
2018-Mar-29 05:30N 36°53' E 030°42'0 0.0
2018-Mar-29 05:00N 36°53' E 030°42'0 0.0
2018-Mar-29 04:30N 36°53' E 030°42'0 0.0
2018-Mar-29 04:00N 36°53' E 030°42'0 0.0
2018-Mar-29 03:30N 36°53' E 030°42'0 0.0
2018-Mar-29 03:00N 36°53' E 030°42'0 0.0
2018-Mar-29 02:30N 36°53' E 030°42'0 0.0
2018-Mar-29 02:00N 36°53' E 030°42'0 0.0
2018-Mar-29 01:30N 36°53' E 030°42'0 0.0
2018-Mar-29 01:01N 36°53' E 030°42'0 0.0
2018-Mar-29 00:30N 36°53' E 030°42'0 0.0
2018-Mar-29 00:00N 36°53' E 030°42'0 0.0
2018-Mar-28 23:30N 36°53' E 030°42'0 0.0
2018-Mar-28 23:00N 36°53' E 030°42'0 0.0
2018-Mar-28 22:30N 36°53' E 030°42'0 0.0
2018-Mar-28 22:00N 36°53' E 030°42'0 0.0
2018-Mar-28 21:30N 36°53' E 030°42'0 0.0
2018-Mar-28 21:00N 36°53' E 030°42'0 0.0
2018-Mar-28 20:30N 36°53' E 030°42'0 0.0
2018-Mar-28 20:00N 36°53' E 030°42'0 0.0
2018-Mar-28 19:30N 36°53' E 030°42'0 0.0
2018-Mar-28 19:00N 36°53' E 030°42'0 0.0
2018-Mar-28 18:30N 36°53' E 030°42'0 0.0
2018-Mar-28 18:01N 36°53' E 030°42'2 4.6
2018-Mar-28 17:30N 36°51' E 030°43'4 8.7
2018-Mar-28 17:00N 36°49' E 030°48'5 9.2
2018-Mar-28 16:30N 36°49' E 030°54'5 9.4
2018-Mar-28 16:00N 36°48' E 030°60'5 9.5
2018-Mar-28 15:30N 36°48' E 031°06'67 4.9
2018-Mar-28 01:56N 36°02' E 032°06'4 9.0
2018-Mar-28 01:31N 35°58' E 032°07'4 9.0
2018-Mar-28 01:01N 35°54' E 032°08'4 8.9
2018-Mar-28 00:30N 35°49' E 032°10'4 8.6
2018-Mar-28 00:01N 35°45' E 032°11'4 8.4
2018-Mar-27 23:30N 35°41' E 032°11'4 8.2
2018-Mar-27 23:01N 35°37' E 032°12'16 8.1
2018-Mar-27 21:04N 35°22' E 032°15'1 8.2
2018-Mar-27 21:00N 35°21' E 032°16'4 8.2
2018-Mar-27 20:31N 35°17' E 032°16'54 1.4
2018-Mar-26 05:36N 34°39' E 033°03'1 7.3
2018-Mar-26 05:30N 34°40' E 033°02'0 0.0
2018-Mar-25 09:13N 34°40' E 033°02'2 5.3
2018-Mar-25 08:48N 34°38' E 033°03'2 0.7
2018-Mar-25 06:14N 34°40' E 033°03'1 0.0
2018-Mar-23 14:08N 34°40' E 033°02'0 3.4
2018-Mar-23 14:00N 34°40' E 033°03'  
Track history (hours):
 
Tides and Currents Weather Stations Pressure Air Temp Water Temp Dewpoint Dewpoint Depression Visibility Wind Speed Wind Dir Waves Ship Positions

Sandalphon

Last reported at 2018-Apr-02 11:38 UTC. Time now 2018-Jun-18 05:39 UTC.
Position N 36°16' E 030°29'.
Warning: this ship's position is months out of date.

Length 31 m; draft 2.4 m.

Type: Pleasure craft. MMSI: 248567000.

Date/timePositionNaut miles runAvg speedWind from/ knotsBaromVisibWave heightAir tempDewpointWater temp
2018-Apr-02 11:38N 36°16' E 030°29'2 8.5
2018-Apr-02 11:27N 36°18' E 030°30'2 0.1
2018-Apr-01 16:08N 36°20' E 030°32'1 7.4
2018-Apr-01 16:00N 36°20' E 030°33'4 8.9
2018-Apr-01 15:31N 36°25' E 030°32'4 8.5
2018-Apr-01 15:00N 36°29' E 030°33'2 4.7
2018-Apr-01 14:30N 36°31' E 030°33'0 0.0
2018-Apr-01 14:00N 36°31' E 030°33'0 0.0
2018-Apr-01 13:30N 36°31' E 030°33'0 0.0
2018-Apr-01 13:00N 36°31' E 030°33'1 1.2
2018-Apr-01 12:30N 36°31' E 030°34'3 5.9
2018-Apr-01 12:00N 36°34' E 030°35'2 4.1
2018-Apr-01 11:30N 36°36' E 030°35'0 0.1
2018-Apr-01 11:01N 36°36' E 030°35'0 0.0
2018-Apr-01 10:31N 36°36' E 030°35'0 0.0
2018-Apr-01 10:00N 36°36' E 030°35'0 0.0
2018-Apr-01 09:30N 36°36' E 030°35'0 0.0
2018-Apr-01 09:01N 36°36' E 030°35'0 0.0
2018-Apr-01 08:31N 36°36' E 030°35'0 0.0
2018-Apr-01 08:00N 36°36' E 030°35'0 0.0
2018-Apr-01 07:30N 36°36' E 030°35'0 0.0
2018-Apr-01 07:00N 36°36' E 030°35'0 0.0
2018-Apr-01 06:30N 36°36' E 030°35'0 0.0
2018-Apr-01 06:00N 36°36' E 030°35'0 0.0
2018-Apr-01 05:30N 36°36' E 030°35'0 0.1
2018-Apr-01 05:00N 36°36' E 030°35'0 0.0
2018-Apr-01 04:30N 36°36' E 030°35'0 0.0
2018-Apr-01 04:00N 36°36' E 030°35'0 0.0
2018-Apr-01 03:30N 36°36' E 030°35'0 0.0
2018-Apr-01 03:00N 36°36' E 030°35'0 0.0
2018-Apr-01 02:30N 36°36' E 030°35'0 0.0
2018-Apr-01 02:00N 36°36' E 030°35'0 0.0
2018-Apr-01 01:30N 36°36' E 030°35'0 0.0
2018-Apr-01 01:00N 36°36' E 030°35'0 0.0
2018-Apr-01 00:30N 36°36' E 030°35'0 0.0
2018-Apr-01 00:00N 36°36' E 030°35'0 0.0
2018-Mar-31 23:30N 36°36' E 030°35'0 0.0
2018-Mar-31 23:00N 36°36' E 030°35'0 0.0
2018-Mar-31 18:08N 36°36' E 030°35'0 0.0
2018-Mar-31 17:59N 36°36' E 030°35'0 0.0
2018-Mar-31 17:30N 36°36' E 030°35'0 0.0
2018-Mar-31 17:00N 36°36' E 030°35'0 0.0
2018-Mar-31 16:30N 36°36' E 030°35'0 0.0
2018-Mar-31 16:00N 36°36' E 030°35'0 0.0
2018-Mar-31 15:30N 36°36' E 030°35'0 0.0
2018-Mar-31 15:00N 36°36' E 030°35'0 0.0
2018-Mar-31 14:31N 36°36' E 030°35'0 0.0
2018-Mar-31 14:01N 36°36' E 030°35'0 0.0
2018-Mar-31 13:30N 36°36' E 030°35'0 0.0
2018-Mar-31 13:01N 36°36' E 030°35'0 0.0
2018-Mar-31 12:30N 36°36' E 030°35'0 0.0
2018-Mar-31 12:01N 36°36' E 030°35'0 0.0
2018-Mar-31 11:30N 36°36' E 030°35'0 0.0
2018-Mar-31 11:00N 36°36' E 030°35'0 0.0
2018-Mar-31 10:30N 36°36' E 030°35'0 0.0
2018-Mar-31 10:00N 36°36' E 030°35'0 0.0
2018-Mar-31 09:31N 36°36' E 030°35'0 0.0
2018-Mar-31 09:00N 36°36' E 030°35'0 0.0
2018-Mar-31 08:30N 36°36' E 030°35'0 0.0
2018-Mar-31 08:01N 36°36' E 030°35'0 0.0
2018-Mar-31 07:30N 36°36' E 030°35'3 5.1
2018-Mar-31 07:00N 36°38' E 030°35'4 8.8
2018-Mar-31 06:31N 36°43' E 030°36'4 8.7
2018-Mar-31 06:00N 36°47' E 030°38'4 8.6
2018-Mar-31 05:30N 36°51' E 030°41'3 5.6
2018-Mar-31 05:00N 36°53' E 030°42'0 0.0
2018-Mar-31 04:30N 36°53' E 030°42'0 0.0
2018-Mar-31 04:00N 36°53' E 030°42'0 0.0
2018-Mar-31 03:30N 36°53' E 030°42'0 0.0
2018-Mar-31 03:00N 36°53' E 030°42'0 0.0
2018-Mar-31 02:30N 36°53' E 030°42'0 0.0
2018-Mar-31 02:00N 36°53' E 030°42'0 0.0
2018-Mar-31 01:30N 36°53' E 030°42'0 0.0
2018-Mar-31 01:00N 36°53' E 030°42'0 0.0
2018-Mar-31 00:30N 36°53' E 030°42'0 0.0
2018-Mar-31 00:00N 36°53' E 030°42'0 0.0
2018-Mar-30 23:30N 36°53' E 030°42'0 0.0
2018-Mar-30 23:00N 36°53' E 030°42'0 0.0
2018-Mar-30 22:30N 36°53' E 030°42'0 0.0
2018-Mar-30 22:00N 36°53' E 030°42'0 0.0
2018-Mar-30 21:30N 36°53' E 030°42'0 0.0
2018-Mar-30 21:00N 36°53' E 030°42'0 0.0
2018-Mar-30 20:30N 36°53' E 030°42'0 0.0
2018-Mar-30 20:00N 36°53' E 030°42'0 0.0
2018-Mar-30 19:30N 36°53' E 030°42'0 0.0
2018-Mar-30 19:00N 36°53' E 030°42'0 0.0
2018-Mar-30 18:30N 36°53' E 030°42'0 0.0
2018-Mar-30 18:00N 36°53' E 030°42'0 0.0
2018-Mar-30 17:30N 36°53' E 030°42'0 0.0
2018-Mar-30 17:00N 36°53' E 030°42'0 0.0
2018-Mar-30 16:30N 36°53' E 030°42'0 0.0
2018-Mar-30 16:00N 36°53' E 030°42'0 0.0
2018-Mar-30 15:30N 36°53' E 030°42'0 0.0
2018-Mar-30 15:00N 36°53' E 030°42'0 0.0
2018-Mar-30 14:30N 36°53' E 030°42'0 0.7
2018-Mar-30 14:01N 36°53' E 030°42'4 7.8
2018-Mar-30 13:31N 36°50' E 030°46'2 4.2
2018-Mar-30 13:01N 36°51' E 030°48'0 0.0
2018-Mar-30 12:30N 36°51' E 030°48'0 0.0
2018-Mar-30 12:00N 36°51' E 030°48'0 0.0
2018-Mar-30 11:30N 36°51' E 030°48'0 0.1
2018-Mar-30 11:00N 36°51' E 030°48'0 0.1
2018-Mar-30 10:30N 36°51' E 030°48'0 0.0
2018-Mar-30 10:00N 36°51' E 030°48'0 0.0
2018-Mar-30 09:31N 36°51' E 030°48'0 0.9
2018-Mar-30 09:00N 36°50' E 030°49'2 3.4
2018-Mar-30 08:31N 36°51' E 030°47'2 4.1
2018-Mar-30 08:00N 36°51' E 030°44'2 4.4
2018-Mar-30 07:30N 36°53' E 030°42'0 1.0
2018-Mar-30 07:00N 36°53' E 030°42'0 0.0
2018-Mar-30 06:31N 36°53' E 030°42'0 0.0
2018-Mar-30 06:00N 36°53' E 030°42'0 0.0
2018-Mar-30 05:30N 36°53' E 030°42'0 0.0
2018-Mar-30 05:00N 36°53' E 030°42'0 0.0
2018-Mar-30 04:30N 36°53' E 030°42'0 0.0
2018-Mar-30 04:00N 36°53' E 030°42'0 0.0
2018-Mar-30 03:30N 36°53' E 030°42'0 0.0
2018-Mar-30 03:00N 36°53' E 030°42'0 0.0
2018-Mar-30 02:30N 36°53' E 030°42'0 0.0
2018-Mar-30 02:00N 36°53' E 030°42'0 0.0
2018-Mar-30 01:30N 36°53' E 030°42'0 0.0
2018-Mar-30 01:00N 36°53' E 030°42'0 0.0
2018-Mar-30 00:30N 36°53' E 030°42'0 0.0
2018-Mar-30 00:00N 36°53' E 030°42'0 0.0
2018-Mar-29 23:30N 36°53' E 030°42'0 0.0
2018-Mar-29 23:00N 36°53' E 030°42'0 0.0
2018-Mar-29 22:30N 36°53' E 030°42'0 0.0
2018-Mar-29 22:00N 36°53' E 030°42'0 0.0
2018-Mar-29 21:30N 36°53' E 030°42'0 0.0
2018-Mar-29 21:00N 36°53' E 030°42'0 0.0
2018-Mar-29 20:30N 36°53' E 030°42'0 0.0
2018-Mar-29 20:01N 36°53' E 030°42'0 0.0
2018-Mar-29 19:30N 36°53' E 030°42'0 0.0
2018-Mar-29 19:00N 36°53' E 030°42'0 0.0
2018-Mar-29 18:30N 36°53' E 030°42'0 0.0
2018-Mar-29 18:00N 36°53' E 030°42'0 0.0
2018-Mar-29 17:30N 36°53' E 030°42'0 0.0
2018-Mar-29 17:00N 36°53' E 030°42'0 0.0
2018-Mar-29 16:30N 36°53' E 030°42'0 0.0
2018-Mar-29 15:59N 36°53' E 030°42'0 0.0
2018-Mar-29 15:30N 36°53' E 030°42'0 0.0
2018-Mar-29 15:00N 36°53' E 030°42'0 0.0
2018-Mar-29 14:30N 36°53' E 030°42'0 0.0
2018-Mar-29 14:00N 36°53' E 030°42'0 0.0
2018-Mar-29 13:30N 36°53' E 030°42'0 0.0
2018-Mar-29 13:00N 36°53' E 030°42'0 0.0
2018-Mar-29 12:30N 36°53' E 030°42'0 0.0
2018-Mar-29 12:00N 36°53' E 030°42'0 0.0
2018-Mar-29 11:30N 36°53' E 030°42'0 0.0
2018-Mar-29 11:00N 36°53' E 030°42'0 0.0
2018-Mar-29 10:30N 36°53' E 030°42'0 0.0
2018-Mar-29 10:00N 36°53' E 030°42'0 0.0
2018-Mar-29 09:30N 36°53' E 030°42'0 0.0
2018-Mar-29 09:00N 36°53' E 030°42'0 0.0
2018-Mar-29 08:30N 36°53' E 030°42'0 0.0
2018-Mar-29 08:00N 36°53' E 030°42'0 0.0
2018-Mar-29 07:30N 36°53' E 030°42'0 0.0
2018-Mar-29 07:00N 36°53' E 030°42'0 0.0
2018-Mar-29 06:30N 36°53' E 030°42'0 0.0
2018-Mar-29 06:00N 36°53' E 030°42'0 0.0
2018-Mar-29 05:30N 36°53' E 030°42'0 0.0
2018-Mar-29 05:00N 36°53' E 030°42'0 0.0
2018-Mar-29 04:30N 36°53' E 030°42'0 0.0
2018-Mar-29 04:00N 36°53' E 030°42'0 0.0
2018-Mar-29 03:30N 36°53' E 030°42'0 0.0
2018-Mar-29 03:00N 36°53' E 030°42'0 0.0
2018-Mar-29 02:30N 36°53' E 030°42'0 0.0
2018-Mar-29 02:00N 36°53' E 030°42'0 0.0
2018-Mar-29 01:30N 36°53' E 030°42'0 0.0
2018-Mar-29 01:01N 36°53' E 030°42'0 0.0
2018-Mar-29 00:30N 36°53' E 030°42'0 0.0
2018-Mar-29 00:00N 36°53' E 030°42'0 0.0
2018-Mar-28 23:30N 36°53' E 030°42'0 0.0
2018-Mar-28 23:00N 36°53' E 030°42'0 0.0
2018-Mar-28 22:30N 36°53' E 030°42'0 0.0
2018-Mar-28 22:00N 36°53' E 030°42'0 0.0
2018-Mar-28 21:30N 36°53' E 030°42'0 0.0
2018-Mar-28 21:00N 36°53' E 030°42'0 0.0
2018-Mar-28 20:30N 36°53' E 030°42'0 0.0
2018-Mar-28 20:00N 36°53' E 030°42'0 0.0
2018-Mar-28 19:30N 36°53' E 030°42'0 0.0
2018-Mar-28 19:00N 36°53' E 030°42'0 0.0
2018-Mar-28 18:30N 36°53' E 030°42'0 0.0
2018-Mar-28 18:01N 36°53' E 030°42'2 4.6
2018-Mar-28 17:30N 36°51' E 030°43'4 8.7
2018-Mar-28 17:00N 36°49' E 030°48'5 9.2
2018-Mar-28 16:30N 36°49' E 030°54'5 9.4
2018-Mar-28 16:00N 36°48' E 030°60'5 9.5
2018-Mar-28 15:30N 36°48' E 031°06'67 4.9
2018-Mar-28 01:56N 36°02' E 032°06'4 9.0
2018-Mar-28 01:31N 35°58' E 032°07'4 9.0
2018-Mar-28 01:01N 35°54' E 032°08'4 8.9
2018-Mar-28 00:30N 35°49' E 032°10'4 8.6
2018-Mar-28 00:01N 35°45' E 032°11'4 8.4
2018-Mar-27 23:30N 35°41' E 032°11'4 8.2
2018-Mar-27 23:01N 35°37' E 032°12'16 8.1
2018-Mar-27 21:04N 35°22' E 032°15'1 8.2
2018-Mar-27 21:00N 35°21' E 032°16'4 8.2
2018-Mar-27 20:31N 35°17' E 032°16'54 1.4
2018-Mar-26 05:36N 34°39' E 033°03'1 7.3
2018-Mar-26 05:30N 34°40' E 033°02'0 0.0
2018-Mar-25 09:13N 34°40' E 033°02'2 5.3
2018-Mar-25 08:48N 34°38' E 033°03'2 0.7
2018-Mar-25 06:14N 34°40' E 033°03'1 0.0
2018-Mar-23 14:08N 34°40' E 033°02'0 3.4
2018-Mar-23 14:00N 34°40' E 033°03'  

Dump ship's entire track history